Time;durP1;ratioP1;P1;durP2;ratioP2;P2;SDS_P1;SDS_P2;PMS_P1;PMS_P2;Temp;Humidity;BMP_temperature;BMP_pressure;BME280_temperature;BME280_humidity;BME280_pressure;Samples;Min_cycle;Max_cycle;Signal;HPM_P1;HPM_P2
2022/04/21 00:02:17;;;;;;;0.00;0.00;;;;;;;;;;5087233;28;20031;-50
2022/04/21 00:04:42;;;;;;;0.00;0.00;;;;;;;;;;5089386;28;20376;-52
2022/04/21 00:07:07;;;;;;;0.00;0.00;;;;;;;;;;5089584;28;20058;-50
2022/04/21 00:09:33;;;;;;;0.00;0.00;;;;;;;;;;5089236;28;20080;-52
2022/04/21 00:11:58;;;;;;;0.00;0.00;;;;;;;;;;5089313;28;20023;-48
2022/04/21 00:14:23;;;;;;;0.00;0.00;;;;;;;;;;5088203;28;20023;-51
2022/04/21 00:16:48;;;;;;;0.00;0.00;;;;;;;;;;5090259;28;20023;-49
2022/04/21 00:19:14;;;;;;;0.00;0.00;;;;;;;;;;5088025;28;20123;-51
2022/04/21 00:24:23;;;;;;;0.00;0.00;;;;;;;;;;5088902;28;20085;-47
2022/04/21 00:26:48;;;;;;;0.00;0.00;;;;;;;;;;5090405;28;20051;-46
2022/04/21 00:29:14;;;;;;;0.00;0.00;;;;;;;;;;5087527;28;20116;-49
2022/04/21 00:31:39;;;;;;;0.00;0.00;;;;;;;;;;5087646;28;20722;-52
2022/04/21 00:34:04;;;;;;;0.00;0.00;;;;;;;;;;5087696;28;20039;-51
2022/04/21 00:36:30;;;;;;;0.00;0.00;;;;;;;;;;5089849;28;20495;-49
2022/04/21 00:38:55;;;;;;;0.00;0.00;;;;;;;;;;5089010;28;20032;-50
2022/04/21 00:41:20;;;;;;;0.00;0.00;;;;;;;;;;5088273;28;20027;-52
2022/04/21 00:43:46;;;;;;;0.00;0.00;;;;;;;;;;5087746;28;20036;-51
2022/04/21 00:46:14;;;;;;;0.00;0.00;;;;;;;;;;5086715;28;20388;-49
2022/04/21 00:48:40;;;;;;;0.00;0.00;;;;;;;;;;5088817;28;20024;-49
2022/04/21 00:51:05;;;;;;;0.00;0.00;;;;;;;;;;5087370;28;20039;-50
2022/04/21 00:53:30;;;;;;;0.00;0.00;;;;;;;;;;5087494;28;20025;-50
2022/04/21 00:55:56;;;;;;;0.00;0.00;;;;;;;;;;5088144;28;20333;-47
2022/04/21 00:58:21;;;;;;;0.00;0.00;;;;;;;;;;5087600;28;20459;-46
2022/04/21 01:00:47;;;;;;;0.17;0.17;;;;;;;;;;5086536;28;20526;-51
2022/04/21 01:03:14;;;;;;;0.00;0.00;;;;;;;;;;5088379;28;20365;-51
2022/04/21 01:05:40;;;;;;;0.90;0.90;;;;;;;;;;5087645;28;20020;-52
2022/04/21 01:08:06;;;;;;;0.00;0.00;;;;;;;;;;5087490;28;20020;-49
2022/04/21 01:10:33;;;;;;;0.00;0.00;;;;;;;;;;5089364;28;20024;-52
2022/04/21 01:12:59;;;;;;;0.10;0.10;;;;;;;;;;5087443;28;20028;-51
2022/04/21 01:15:24;;;;;;;0.00;0.00;;;;;;;;;;5087099;28;20091;-52
2022/04/21 01:17:51;;;;;;;0.43;0.43;;;;;;;;;;5086934;28;20028;-51
2022/04/21 01:20:19;;;;;;;0.55;0.32;;;;;;;;;;5087369;28;20072;-51
2022/04/21 01:22:45;;;;;;;0.00;0.00;;;;;;;;;;5086841;28;20031;-51
2022/04/21 01:25:13;;;;;;;0.03;0.03;;;;;;;;;;5087292;28;20097;-50
2022/04/21 01:27:40;;;;;;;0.00;0.00;;;;;;;;;;5088113;28;20024;-50
2022/04/21 01:30:06;;;;;;;0.00;0.00;;;;;;;;;;5084417;28;20028;-48
2022/04/21 01:32:35;;;;;;;0.00;0.00;;;;;;;;;;5087391;28;20028;-52
2022/04/21 01:35:01;;;;;;;0.00;0.00;;;;;;;;;;5088438;28;20027;-50
2022/04/21 01:42:53;;;;;;;1.13;1.10;;;;;;;;;;5085881;28;20039;-48
2022/04/21 01:45:19;;;;;;;1.08;1.08;;;;;;;;;;5087978;28;20020;-48
2022/04/21 01:47:44;;;;;;;0.70;0.70;;;;;;;;;;5087193;28;20513;-48
2022/04/21 01:50:09;;;;;;;0.00;0.00;;;;;;;;;;5086510;28;20040;-47
2022/04/21 01:52:35;;;;;;;0.00;0.00;;;;;;;;;;5086165;28;20543;-48
2022/04/21 01:55:01;;;;;;;0.00;0.00;;;;;;;;;;5087862;28;20051;-49
2022/04/21 01:57:27;;;;;;;0.00;0.00;;;;;;;;;;5085011;28;20238;-49
2022/04/21 01:59:52;;;;;;;0.00;0.00;;;;;;;;;;5088166;28;20119;-49
2022/04/21 02:02:18;;;;;;;0.00;0.00;;;;;;;;;;5086310;28;20028;-47
2022/04/21 02:04:43;;;;;;;0.80;0.57;;;;;;;;;;5087507;28;20348;-48
2022/04/21 02:07:08;;;;;;;0.00;0.00;;;;;;;;;;5086160;28;20031;-53
2022/04/21 02:09:34;;;;;;;0.00;0.00;;;;;;;;;;5087195;28;20165;-47
2022/04/21 02:11:59;;;;;;;0.00;0.00;;;;;;;;;;5086783;28;20027;-48
2022/04/21 02:14:24;;;;;;;0.00;0.00;;;;;;;;;;5087187;28;20024;-48
2022/04/21 02:16:49;;;;;;;0.00;0.00;;;;;;;;;;5086672;28;20027;-48
2022/04/21 02:19:15;;;;;;;0.00;0.00;;;;;;;;;;5086987;28;20384;-49
2022/04/21 02:21:40;;;;;;;0.05;0.05;;;;;;;;;;5086664;28;20157;-53
2022/04/21 02:24:05;;;;;;;0.10;0.10;;;;;;;;;;5087387;28;20027;-48
2022/04/21 02:26:31;;;;;;;0.00;0.00;;;;;;;;;;5085028;28;20023;-47
2022/04/21 02:28:56;;;;;;;0.35;0.35;;;;;;;;;;5087000;28;20024;-48
2022/04/21 02:31:21;;;;;;;0.28;0.28;;;;;;;;;;5085225;28;20035;-49
2022/04/21 02:33:47;;;;;;;0.00;0.00;;;;;;;;;;5087925;28;20142;-48
2022/04/21 02:36:12;;;;;;;0.00;0.00;;;;;;;;;;5085007;28;20020;-50
2022/04/21 02:38:37;;;;;;;0.00;0.00;;;;;;;;;;5087707;28;20032;-51
2022/04/21 02:41:04;;;;;;;0.00;0.00;;;;;;;;;;5086396;28;20035;-47
2022/04/21 02:43:29;;;;;;;0.00;0.00;;;;;;;;;;5090656;28;20028;-52
2022/04/21 02:45:54;;;;;;;0.00;0.00;;;;;;;;;;5089371;28;20047;-50
2022/04/21 02:48:20;;;;;;;0.00;0.00;;;;;;;;;;5091194;28;20028;-51
2022/04/21 02:50:47;;;;;;;0.00;0.00;;;;;;;;;;5088855;28;20040;-47
2022/04/21 02:53:13;;;;;;;0.00;0.00;;;;;;;;;;5091214;28;20047;-46
2022/04/21 02:58:38;;;;;;;0.00;0.00;;;;;;;;;;5038250;28;20090;-52
2022/04/21 03:01:04;;;;;;;0.00;0.00;;;;;;;;;;5079625;28;20040;-53
2022/04/21 03:03:29;;;;;;;2.15;2.13;;;;;;;;;;5090132;28;20028;-49
2022/04/21 03:05:54;;;;;;;0.00;0.00;;;;;;;;;;5090432;28;20039;-48
2022/04/21 03:08:19;;;;;;;0.00;0.00;;;;;;;;;;5090039;28;20491;-47
2022/04/21 03:10:45;;;;;;;0.00;0.00;;;;;;;;;;5090622;28;20461;-50
2022/04/21 03:13:10;;;;;;;0.00;0.00;;;;;;;;;;5090684;28;20052;-50
2022/04/21 03:15:35;;;;;;;0.00;0.00;;;;;;;;;;5089956;28;20034;-48
2022/04/21 03:18:00;;;;;;;0.65;0.65;;;;;;;;;;5090255;28;20423;-48
2022/04/21 03:25:53;;;;;;;0.00;0.00;;;;;;;;;;5089825;28;20027;-48
2022/04/21 03:28:18;;;;;;;0.00;0.00;;;;;;;;;;5088977;28;20028;-46
2022/04/21 03:30:44;;;;;;;0.00;0.00;;;;;;;;;;5089833;28;20384;-52
2022/04/21 03:33:09;;;;;;;0.00;0.00;;;;;;;;;;5089170;28;20754;-53
2022/04/21 03:35:35;;;;;;;0.00;0.00;;;;;;;;;;5089387;28;20020;-47
2022/04/21 03:38:00;;;;;;;0.00;0.00;;;;;;;;;;5089066;28;20139;-47
2022/04/21 03:40:25;;;;;;;0.00;0.00;;;;;;;;;;5089121;28;20110;-51
2022/04/21 03:42:50;;;;;;;0.15;0.15;;;;;;;;;;5089386;28;20034;-48
2022/04/21 03:45:15;;;;;;;0.00;0.00;;;;;;;;;;5088843;28;20046;-50
2022/04/21 03:47:41;;;;;;;0.00;0.00;;;;;;;;;;5089429;28;20020;-48
2022/04/21 03:50:06;;;;;;;0.00;0.00;;;;;;;;;;5090159;28;20553;-48
2022/04/21 03:52:31;;;;;;;0.75;0.75;;;;;;;;;;5087728;28;20035;-49
2022/04/21 03:54:57;;;;;;;0.43;0.43;;;;;;;;;;5089885;28;20476;-50
2022/04/21 03:57:22;;;;;;;0.00;0.00;;;;;;;;;;5088766;28;20116;-49
2022/04/21 03:59:47;;;;;;;0.00;0.00;;;;;;;;;;5089764;28;20024;-49
2022/04/21 04:02:12;;;;;;;1.23;1.23;;;;;;;;;;5088419;28;20460;-52
2022/04/21 04:04:38;;;;;;;3.92;1.65;;;;;;;;;;5089578;28;20020;-53
2022/04/21 04:12:32;;;;;;;0.28;0.28;;;;;;;;;;5088979;28;20549;-50
2022/04/21 04:14:58;;;;;;;0.28;0.28;;;;;;;;;;5089548;28;20028;-50
2022/04/21 04:17:23;;;;;;;0.00;0.00;;;;;;;;;;5088041;28;20021;-50
2022/04/21 04:19:48;;;;;;;0.00;0.00;;;;;;;;;;5089783;28;20021;-51
2022/04/21 04:22:15;;;;;;;0.00;0.00;;;;;;;;;;5086770;28;20110;-52
2022/04/21 04:24:40;;;;;;;0.00;0.00;;;;;;;;;;5088290;28;20024;-49
2022/04/21 04:27:05;;;;;;;0.00;0.00;;;;;;;;;;5088154;28;20016;-51
2022/04/21 04:29:31;;;;;;;1.65;1.50;;;;;;;;;;5089312;28;20037;-50
2022/04/21 04:31:57;;;;;;;0.00;0.00;;;;;;;;;;5087024;28;20012;-49
2022/04/21 04:34:22;;;;;;;0.00;0.00;;;;;;;;;;5089461;28;20619;-50
2022/04/21 04:36:47;;;;;;;0.00;0.00;;;;;;;;;;5087612;28;20034;-50
2022/04/21 04:39:13;;;;;;;0.00;0.00;;;;;;;;;;5089468;28;20016;-51
2022/04/21 04:44:25;;;;;;;0.00;0.00;;;;;;;;;;5088656;28;20084;-47
2022/04/21 04:46:50;;;;;;;0.00;0.00;;;;;;;;;;5086948;28;20531;-50
2022/04/21 04:49:16;;;;;;;0.00;0.00;;;;;;;;;;5088945;28;20044;-51
2022/04/21 04:51:41;;;;;;;0.00;0.00;;;;;;;;;;5086738;28;20047;-50
2022/04/21 04:54:07;;;;;;;0.20;0.20;;;;;;;;;;5088680;28;20089;-50
2022/04/21 04:56:33;;;;;;;0.00;0.00;;;;;;;;;;5089345;28;20028;-51
2022/04/21 04:58:59;;;;;;;0.00;0.00;;;;;;;;;;5088246;28;20068;-50
2022/04/21 05:01:31;;;;;;;0.95;0.95;;;;;;;;;;5088268;28;20097;-46
2022/04/21 05:04:15;;;;;;;0.00;0.00;;;;;;;;;;5088123;28;20028;-46
2022/04/21 05:06:51;;;;;;;0.35;0.35;;;;;;;;;;5088324;28;20480;-48
2022/04/21 05:09:20;;;;;;;0.13;0.13;;;;;;;;;;5087311;28;20106;-49
2022/04/21 05:11:47;;;;;;;0.10;0.10;;;;;;;;;;5087361;28;20081;-48
2022/04/21 05:14:13;;;;;;;0.70;0.70;;;;;;;;;;5087621;28;20082;-60
2022/04/21 05:16:39;;;;;;;0.00;0.00;;;;;;;;;;5086558;28;20501;-60
2022/04/21 05:19:05;;;;;;;0.00;0.00;;;;;;;;;;5086430;28;20020;-59
2022/04/21 05:21:32;;;;;;;0.38;0.38;;;;;;;;;;5086105;28;20024;-59
2022/04/21 05:23:58;;;;;;;0.00;0.00;;;;;;;;;;5086743;28;20111;-59
2022/04/21 05:26:24;;;;;;;0.00;0.00;;;;;;;;;;5087430;28;20119;-60
2022/04/21 05:28:49;;;;;;;0.00;0.00;;;;;;;;;;5086900;28;20031;-60
2022/04/21 05:31:15;;;;;;;0.00;0.00;;;;;;;;;;5086355;28;20026;-59
2022/04/21 05:33:41;;;;;;;0.32;0.32;;;;;;;;;;5086927;28;20024;-60
2022/04/21 05:36:06;;;;;;;0.38;0.30;;;;;;;;;;5087159;28;20018;-61
2022/04/21 05:38:31;;;;;;;0.00;0.00;;;;;;;;;;5086545;28;20020;-60
2022/04/21 05:40:57;;;;;;;0.00;0.00;;;;;;;;;;5087495;28;20016;-60
2022/04/21 05:43:28;;;;;;;0.00;0.00;;;;;;;;;;5085639;28;20115;-60
2022/04/21 05:45:53;;;;;;;0.35;0.35;;;;;;;;;;5087606;28;20473;-59
2022/04/21 05:48:18;;;;;;;12.57;12.02;;;;;;;;;;5084742;28;20073;-59
2022/04/21 05:50:45;;;;;;;0.00;0.00;;;;;;;;;;5086388;28;20040;-60
2022/04/21 05:53:14;;;;;;;0.00;0.00;;;;;;;;;;5086570;28;20060;-60
2022/04/21 05:55:39;;;;;;;0.00;0.00;;;;;;;;;;5086449;28;20035;-61
2022/04/21 05:58:04;;;;;;;0.00;0.00;;;;;;;;;;5086063;28;20108;-60
2022/04/21 06:00:30;;;;;;;0.00;0.00;;;;;;;;;;5086574;28;20039;-59
2022/04/21 06:02:55;;;;;;;0.10;0.10;;;;;;;;;;5086478;28;20024;-61
2022/04/21 06:05:20;;;;;;;0.30;0.30;;;;;;;;;;5086342;28;20031;-60
2022/04/21 06:07:46;;;;;;;0.20;0.20;;;;;;;;;;5085860;28;20027;-59
2022/04/21 06:10:11;;;;;;;0.00;0.00;;;;;;;;;;5087013;28;20067;-60
2022/04/21 06:12:36;;;;;;;0.15;0.15;;;;;;;;;;5085725;28;20020;-60
2022/04/21 06:15:02;;;;;;;0.03;0.03;;;;;;;;;;5086335;28;20735;-59
2022/04/21 06:17:27;;;;;;;0.00;0.00;;;;;;;;;;5083757;28;20028;-59
2022/04/21 06:19:53;;;;;;;0.13;0.13;;;;;;;;;;5085450;28;20099;-60
2022/04/21 06:22:18;;;;;;;0.00;0.00;;;;;;;;;;5084720;28;20026;-60
2022/04/21 06:24:43;;;;;;;0.00;0.00;;;;;;;;;;5085907;28;20398;-59
2022/04/21 06:27:08;;;;;;;0.80;0.80;;;;;;;;;;5086221;28;20020;-59
2022/04/21 06:29:34;;;;;;;0.00;0.00;;;;;;;;;;5086364;28;20016;-61
2022/04/21 06:31:59;;;;;;;0.00;0.00;;;;;;;;;;5086701;28;20091;-59
2022/04/21 06:34:24;;;;;;;0.38;0.38;;;;;;;;;;5086299;28;20020;-59
2022/04/21 06:36:49;;;;;;;0.40;0.40;;;;;;;;;;5086208;28;20024;-59
2022/04/21 06:39:15;;;;;;;0.00;0.00;;;;;;;;;;5087045;28;20026;-59
2022/04/21 06:41:40;;;;;;;0.00;0.00;;;;;;;;;;5085717;28;20051;-61
2022/04/21 06:49:33;;;;;;;0.20;0.10;;;;;;;;;;5086275;28;20073;-60
2022/04/21 06:51:58;;;;;;;0.00;0.00;;;;;;;;;;5085035;28;20036;-60
2022/04/21 06:54:23;;;;;;;0.00;0.00;;;;;;;;;;5086478;28;20024;-60
2022/04/21 06:56:49;;;;;;;0.40;0.40;;;;;;;;;;5085589;28;20051;-59
2022/04/21 06:59:15;;;;;;;0.00;0.00;;;;;;;;;;5086795;28;20119;-60
2022/04/21 07:01:41;;;;;;;0.00;0.00;;;;;;;;;;5084998;28;20024;-60
2022/04/21 07:04:06;;;;;;;0.00;0.00;;;;;;;;;;5086681;28;20040;-60
2022/04/21 07:06:31;;;;;;;0.30;0.30;;;;;;;;;;5085336;28;20107;-60
2022/04/21 07:08:57;;;;;;;0.00;0.00;;;;;;;;;;5086425;28;20020;-60
2022/04/21 07:11:22;;;;;;;0.00;0.00;;;;;;;;;;5084579;28;20050;-60
2022/04/21 07:13:48;;;;;;;2.92;1.85;;;;;;;;;;5085980;28;20024;-60
2022/04/21 07:16:13;;;;;;;0.80;0.80;;;;;;;;;;5084616;28;20016;-59
2022/04/21 07:18:38;;;;;;;0.00;0.00;;;;;;;;;;5085313;28;20016;-60
2022/04/21 07:21:04;;;;;;;0.00;0.00;;;;;;;;;;5084891;28;20033;-60
2022/04/21 07:23:29;;;;;;;0.00;0.00;;;;;;;;;;5086378;28;20020;-60
2022/04/21 07:25:55;;;;;;;0.00;0.00;;;;;;;;;;5085045;28;20024;-60
2022/04/21 07:28:20;;;;;;;0.20;0.20;;;;;;;;;;5088125;28;20071;-60
2022/04/21 07:30:46;;;;;;;0.00;0.00;;;;;;;;;;5087811;28;20141;-60
2022/04/21 07:33:11;;;;;;;0.03;0.03;;;;;;;;;;5090800;28;20557;-60
2022/04/21 07:35:37;;;;;;;0.25;0.25;;;;;;;;;;5087790;28;20104;-60
2022/04/21 07:38:02;;;;;;;0.85;0.85;;;;;;;;;;5090298;28;20472;-60
2022/04/21 07:40:28;;;;;;;0.00;0.00;;;;;;;;;;5087744;28;20025;-60
2022/04/21 07:42:53;;;;;;;0.00;0.00;;;;;;;;;;5089778;28;20492;-60
2022/04/21 07:45:18;;;;;;;0.17;0.00;;;;;;;;;;5086530;28;20028;-60
2022/04/21 07:47:43;;;;;;;0.00;0.00;;;;;;;;;;5088609;28;20027;-60
2022/04/21 07:50:08;;;;;;;0.57;0.57;;;;;;;;;;5087417;28;20036;-60
2022/04/21 07:55:19;;;;;;;0.03;0.03;;;;;;;;;;5087492;28;20081;-59
2022/04/21 07:57:45;;;;;;;1.67;1.58;;;;;;;;;;5090176;28;20457;-59
2022/04/21 08:00:11;;;;;;;1.23;1.23;;;;;;;;;;5087581;28;20027;-60
2022/04/21 08:02:37;;;;;;;0.20;0.20;;;;;;;;;;5089356;28;20099;-60
2022/04/21 08:05:02;;;;;;;0.17;0.17;;;;;;;;;;5087426;28;20116;-60
2022/04/21 08:07:27;;;;;;;0.00;0.00;;;;;;;;;;5089209;28;20031;-60
2022/04/21 08:09:52;;;;;;;0.00;0.00;;;;;;;;;;5087515;28;20024;-60
2022/04/21 08:12:18;;;;;;;0.20;0.20;;;;;;;;;;5088241;28;20352;-61
2022/04/21 08:14:43;;;;;;;0.52;0.52;;;;;;;;;;5087555;28;20104;-60
2022/04/21 08:17:08;;;;;;;0.00;0.00;;;;;;;;;;5089401;28;20102;-60
2022/04/21 08:19:34;;;;;;;0.00;0.00;;;;;;;;;;5086722;28;20026;-61
2022/04/21 08:21:59;;;;;;;0.45;0.45;;;;;;;;;;5088820;28;20028;-59
2022/04/21 08:32:45;;;;;;;0.00;0.00;;;;;;;;;;5087387;28;20115;-60
2022/04/21 08:35:13;;;;;;;0.88;0.15;;;;;;;;;;5088849;28;20089;-60
2022/04/21 08:37:39;;;;;;;0.00;0.00;;;;;;;;;;5085664;28;20016;-59
2022/04/21 08:40:05;;;;;;;0.08;0.08;;;;;;;;;;5087965;28;20419;-60
2022/04/21 08:42:31;;;;;;;0.90;0.50;;;;;;;;;;5085939;28;20031;-60
2022/04/21 08:44:59;;;;;;;3.85;1.55;;;;;;;;;;5087939;28;20043;-60
2022/04/21 08:47:28;;;;;;;0.15;0.15;;;;;;;;;;5087519;28;20040;-60
2022/04/21 08:49:55;;;;;;;0.73;0.73;;;;;;;;;;5087785;28;20024;-60
2022/04/21 08:52:21;;;;;;;1.17;1.08;;;;;;;;;;5086924;28;20023;-59
2022/04/21 08:54:46;;;;;;;0.10;0.10;;;;;;;;;;5088213;28;20016;-61
2022/04/21 08:57:12;;;;;;;0.00;0.00;;;;;;;;;;5087519;28;20016;-61
2022/04/21 08:59:37;;;;;;;0.00;0.00;;;;;;;;;;5087500;28;20107;-61
2022/04/21 09:02:02;;;;;;;0.17;0.17;;;;;;;;;;5087474;28;20020;-59
2022/04/21 09:04:30;;;;;;;0.75;0.75;;;;;;;;;;5087093;28;20035;-59
2022/04/21 09:06:55;;;;;;;0.35;0.28;;;;;;;;;;5087663;28;20108;-60
2022/04/21 09:09:23;;;;;;;0.00;0.00;;;;;;;;;;5086759;28;20135;-61
2022/04/21 09:11:54;;;;;;;0.00;0.00;;;;;;;;;;5086940;28;20622;-61
2022/04/21 09:14:20;;;;;;;0.00;0.00;;;;;;;;;;5085619;28;20039;-61
2022/04/21 09:16:46;;;;;;;0.00;0.00;;;;;;;;;;5087441;28;20024;-61
2022/04/21 09:19:11;;;;;;;0.08;0.00;;;;;;;;;;5087456;28;20053;-61
2022/04/21 09:21:38;;;;;;;0.00;0.00;;;;;;;;;;5087590;28;20024;-61
2022/04/21 09:24:22;;;;;;;0.80;0.80;;;;;;;;;;5086954;28;20398;-61
2022/04/21 09:26:48;;;;;;;0.00;0.00;;;;;;;;;;5086059;28;20058;-62
2022/04/21 09:29:22;;;;;;;0.35;0.35;;;;;;;;;;5086964;28;20407;-61
2022/04/21 09:31:47;;;;;;;0.45;0.45;;;;;;;;;;5086134;28;20032;-60
2022/04/21 09:34:12;;;;;;;0.00;0.00;;;;;;;;;;5086590;28;20020;-61
2022/04/21 09:36:37;;;;;;;0.13;0.13;;;;;;;;;;5086436;28;20028;-60
2022/04/21 09:39:03;;;;;;;0.90;0.50;;;;;;;;;;5085523;28;20436;-60
2022/04/21 09:41:30;;;;;;;0.00;0.00;;;;;;;;;;5085369;28;20035;-60
2022/04/21 09:46:07;;;;;;;0.65;0.65;;;;;;;;;;5087320;28;20036;-62
2022/04/21 09:46:51;;;;;;;0.00;0.00;;;;;;;;;;5085549;28;20119;-61
2022/04/21 09:49:32;;;;;;;0.30;0.30;;;;;;;;;;5087841;28;20099;-61
2022/04/21 09:51:57;;;;;;;0.00;0.00;;;;;;;;;;5085106;28;20062;-61
2022/04/21 09:54:27;;;;;;;0.57;0.57;;;;;;;;;;5087132;28;20036;-61
2022/04/21 09:56:53;;;;;;;0.28;0.28;;;;;;;;;;5085001;28;20442;-62
2022/04/21 09:59:19;;;;;;;0.30;0.30;;;;;;;;;;5087113;28;20027;-60
2022/04/21 10:01:44;;;;;;;1.10;0.90;;;;;;;;;;5085207;28;20410;-60
2022/04/21 10:04:13;;;;;;;0.00;0.00;;;;;;;;;;5087503;28;20084;-60
2022/04/21 10:06:39;;;;;;;1.02;1.02;;;;;;;;;;5085078;28;20039;-61
2022/04/21 10:09:07;;;;;;;0.55;0.55;;;;;;;;;;5086101;28;20373;-61
2022/04/21 10:11:32;;;;;;;0.17;0.17;;;;;;;;;;5085599;28;20024;-61
2022/04/21 10:13:58;;;;;;;0.70;0.70;;;;;;;;;;5087061;28;20038;-62
2022/04/21 10:16:24;;;;;;;0.20;0.20;;;;;;;;;;5084361;28;20016;-60
2022/04/21 10:18:52;;;;;;;2.38;2.17;;;;;;;;;;5085729;28;20085;-61
2022/04/21 10:21:42;;;;;;;0.68;0.68;;;;;;;;;;5085809;28;20061;-61
2022/04/21 10:24:07;;;;;;;0.00;0.00;;;;;;;;;;5075105;28;20185;-61
2022/04/21 10:26:40;;;;;;;0.00;0.00;;;;;;;;;;5085359;28;20103;-60
2022/04/21 10:29:11;;;;;;;4.40;1.45;;;;;;;;;;5086422;28;20031;-61
2022/04/21 10:31:45;;;;;;;0.00;0.00;;;;;;;;;;5084927;28;20016;-60
2022/04/21 10:34:10;;;;;;;0.00;0.00;;;;;;;;;;5086040;28;20106;-60
2022/04/21 10:36:37;;;;;;;0.00;0.00;;;;;;;;;;5083401;28;20083;-61
2022/04/21 10:39:08;;;;;;;0.00;0.00;;;;;;;;;;5086214;28;20031;-60
2022/04/21 10:41:34;;;;;;;0.85;0.85;;;;;;;;;;5086372;28;20077;-61
2022/04/21 10:44:00;;;;;;;0.00;0.00;;;;;;;;;;5084621;28;20592;-61
2022/04/21 10:46:26;;;;;;;0.00;0.00;;;;;;;;;;5085243;28;20024;-61
2022/04/21 10:48:52;;;;;;;0.00;0.00;;;;;;;;;;5086155;28;20137;-61
2022/04/21 10:51:36;;;;;;;1.75;1.65;;;;;;;;;;5086095;28;20209;-56
2022/04/21 10:59:30;;;;;;;0.20;0.20;;;;;;;;;;5084020;28;20112;-60
2022/04/21 11:01:55;;;;;;;0.05;0.05;;;;;;;;;;5086122;28;20099;-62
2022/04/21 11:04:21;;;;;;;0.68;0.40;;;;;;;;;;5089586;28;20492;-61
2022/04/21 11:06:48;;;;;;;0.63;0.63;;;;;;;;;;5086815;28;20020;-60
2022/04/21 11:09:33;;;;;;;0.00;0.00;;;;;;;;;;5088820;28;20016;-61
2022/04/21 11:11:58;;;;;;;0.00;0.00;;;;;;;;;;5090594;28;20024;-61
2022/04/21 11:14:27;;;;;;;0.00;0.00;;;;;;;;;;5088017;28;20506;-60
2022/04/21 11:16:52;;;;;;;2.20;1.05;;;;;;;;;;5088526;28;20460;-61
2022/04/21 11:19:31;;;;;;;0.70;0.32;;;;;;;;;;5088448;28;20029;-61
2022/04/21 11:21:57;;;;;;;0.32;0.32;;;;;;;;;;5089628;28;20042;-62
2022/04/21 11:24:23;;;;;;;1.17;0.45;;;;;;;;;;5088451;28;20031;-60
2022/04/21 11:26:54;;;;;;;1.80;1.70;;;;;;;;;;5088649;28;20333;-60
2022/04/21 11:29:19;;;;;;;0.22;0.22;;;;;;;;;;5090765;28;20464;-60
2022/04/21 11:31:44;;;;;;;0.30;0.30;;;;;;;;;;5086669;28;20035;-61
2022/04/21 11:34:10;;;;;;;0.00;0.00;;;;;;;;;;5086874;28;20437;-61
2022/04/21 11:36:36;;;;;;;0.00;0.00;;;;;;;;;;5087932;28;20065;-61
2022/04/21 11:39:05;;;;;;;0.43;0.40;;;;;;;;;;5089751;28;20027;-61
2022/04/21 11:41:30;;;;;;;0.95;0.95;;;;;;;;;;5087807;28;20032;-61
2022/04/21 11:43:56;;;;;;;0.00;0.00;;;;;;;;;;5089149;28;20123;-62
2022/04/21 11:46:21;;;;;;;0.00;0.00;;;;;;;;;;5087773;28;20052;-62
2022/04/21 11:48:55;;;;;;;0.08;0.08;;;;;;;;;;5088670;28;20028;-60
2022/04/21 11:51:25;;;;;;;9.30;8.65;;;;;;;;;;5086689;28;20486;-61
2022/04/21 11:53:50;;;;;;;0.00;0.00;;;;;;;;;;5089546;28;20073;-61
2022/04/21 11:56:16;;;;;;;0.00;0.00;;;;;;;;;;5088057;28;20020;-61
2022/04/21 11:58:42;;;;;;;0.85;0.50;;;;;;;;;;5089391;28;20016;-60
2022/04/21 12:06:44;;;;;;;0.17;0.17;;;;;;;;;;5087634;28;20035;-61
2022/04/21 12:09:13;;;;;;;1.35;1.35;;;;;;;;;;5088666;28;20538;-61
2022/04/21 12:11:39;;;;;;;0.15;0.15;;;;;;;;;;5087316;28;20103;-61
2022/04/21 12:14:05;;;;;;;0.88;0.88;;;;;;;;;;5087638;28;20106;-61
2022/04/21 12:16:34;;;;;;;0.20;0.20;;;;;;;;;;5087061;28;20020;-61
2022/04/21 12:19:08;;;;;;;0.17;0.17;;;;;;;;;;5088378;28;20032;-61
2022/04/21 12:21:34;;;;;;;1.77;1.67;;;;;;;;;;5087603;28;20106;-61
2022/04/21 12:24:10;;;;;;;0.20;0.20;;;;;;;;;;5088091;28;20822;-62
2022/04/21 12:26:36;;;;;;;0.98;0.98;;;;;;;;;;5086736;28;20041;-61
2022/04/21 12:29:01;;;;;;;0.00;0.00;;;;;;;;;;5087711;28;20085;-61
2022/04/21 12:31:26;;;;;;;0.70;0.55;;;;;;;;;;5085772;28;20028;-62
2022/04/21 12:33:51;;;;;;;0.35;0.35;;;;;;;;;;5087341;28;20039;-61
2022/04/21 12:36:25;;;;;;;0.00;0.00;;;;;;;;;;5088063;28;20035;-60
2022/04/21 12:39:16;;;;;;;0.85;0.85;;;;;;;;;;5086637;28;20108;-60
2022/04/21 12:41:42;;;;;;;0.45;0.45;;;;;;;;;;5082546;28;20036;-60
2022/04/21 12:44:07;;;;;;;0.08;0.08;;;;;;;;;;5087532;28;20035;-61
2022/04/21 12:46:33;;;;;;;0.43;0.43;;;;;;;;;;5086949;28;20028;-61
2022/04/21 12:48:58;;;;;;;0.10;0.10;;;;;;;;;;5086876;28;20036;-60
2022/04/21 12:51:23;;;;;;;0.85;0.85;;;;;;;;;;5087125;28;20115;-61
2022/04/21 12:53:58;;;;;;;0.10;0.10;;;;;;;;;;5086056;28;20118;-61
2022/04/21 12:56:36;;;;;;;1.33;1.33;;;;;;;;;;5087329;28;20088;-61
2022/04/21 12:59:02;;;;;;;1.85;1.00;;;;;;;;;;5086538;28;20024;-61
2022/04/21 13:01:27;;;;;;;1.10;1.10;;;;;;;;;;5084891;28;20061;-61
2022/04/21 13:03:53;;;;;;;0.17;0.17;;;;;;;;;;5087265;28;20048;-61
2022/04/21 13:06:28;;;;;;;0.82;0.82;;;;;;;;;;5086843;28;20035;-60
2022/04/21 13:08:54;;;;;;;0.88;0.85;;;;;;;;;;5086192;28;20422;-61
2022/04/21 13:11:19;;;;;;;1.55;1.55;;;;;;;;;;5085906;28;20034;-61
2022/04/21 13:13:44;;;;;;;1.25;1.20;;;;;;;;;;5085394;28;20084;-61
2022/04/21 13:16:09;;;;;;;1.83;1.20;;;;;;;;;;5086973;28;20066;-61
2022/04/21 13:18:35;;;;;;;0.00;0.00;;;;;;;;;;5085289;28;20115;-61
2022/04/21 13:23:44;;;;;;;0.20;0.20;;;;;;;;;;5086000;28;20043;-60
2022/04/21 13:26:09;;;;;;;0.00;0.00;;;;;;;;;;5086651;28;20391;-61
2022/04/21 13:28:35;;;;;;;0.10;0.10;;;;;;;;;;5086234;28;20023;-61
2022/04/21 13:33:44;;;;;;;1.50;1.40;;;;;;;;;;5086582;28;20043;-61
2022/04/21 13:36:10;;;;;;;0.00;0.00;;;;;;;;;;5086323;28;20028;-61
2022/04/21 13:38:35;;;;;;;0.50;0.50;;;;;;;;;;5085686;28;20032;-61
2022/04/21 13:41:00;;;;;;;1.33;1.23;;;;;;;;;;5084732;28;20052;-62
2022/04/21 13:43:26;;;;;;;1.48;1.38;;;;;;;;;;5087068;28;20020;-62
2022/04/21 13:45:51;;;;;;;2.45;0.95;;;;;;;;;;5085225;28;20024;-61
2022/04/21 13:48:17;;;;;;;0.13;0.13;;;;;;;;;;5086987;28;20023;-60
2022/04/21 13:50:42;;;;;;;0.55;0.55;;;;;;;;;;5083490;28;20036;-61
2022/04/21 13:53:07;;;;;;;0.90;0.20;;;;;;;;;;5085383;28;20035;-61
2022/04/21 13:55:33;;;;;;;0.15;0.15;;;;;;;;;;5085807;28;20099;-60
2022/04/21 13:57:58;;;;;;;0.00;0.00;;;;;;;;;;5084508;28;20043;-60
2022/04/21 14:00:25;;;;;;;0.55;0.55;;;;;;;;;;5084496;28;20028;-60
2022/04/21 14:02:51;;;;;;;0.05;0.05;;;;;;;;;;5086099;28;20039;-60
2022/04/21 14:05:16;;;;;;;0.43;0.43;;;;;;;;;;5084340;28;20457;-60
2022/04/21 14:07:42;;;;;;;0.25;0.25;;;;;;;;;;5084510;28;20024;-60
2022/04/21 14:10:07;;;;;;;0.25;0.25;;;;;;;;;;5085835;28;20031;-62
2022/04/21 14:12:32;;;;;;;0.70;0.57;;;;;;;;;;5086274;28;20028;-60
2022/04/21 14:14:58;;;;;;;0.10;0.10;;;;;;;;;;5086513;28;20020;-60
2022/04/21 14:17:23;;;;;;;0.90;0.40;;;;;;;;;;5085671;28;20020;-60
2022/04/21 14:19:48;;;;;;;0.90;0.45;;;;;;;;;;5086514;28;20030;-59
2022/04/21 14:22:14;;;;;;;0.43;0.43;;;;;;;;;;5085168;28;20043;-60
2022/04/21 14:24:39;;;;;;;1.08;1.08;;;;;;;;;;5086133;28;20032;-60
2022/04/21 14:27:05;;;;;;;0.70;0.60;;;;;;;;;;5085210;28;20081;-60
2022/04/21 14:29:30;;;;;;;0.20;0.20;;;;;;;;;;5085574;28;20382;-60
2022/04/21 14:31:55;;;;;;;0.68;0.68;;;;;;;;;;5085799;28;20503;-59
2022/04/21 14:34:21;;;;;;;1.38;1.27;;;;;;;;;;5068423;28;20024;-60
2022/04/21 14:36:46;;;;;;;1.55;0.80;;;;;;;;;;5086382;28;20368;-60
2022/04/21 14:44:39;;;;;;;0.75;0.75;;;;;;;;;;5090926;28;20030;-59
2022/04/21 14:47:07;;;;;;;1.50;1.23;;;;;;;;;;5089181;28;20024;-60
2022/04/21 14:49:32;;;;;;;0.63;0.63;;;;;;;;;;5090419;28;20406;-61
2022/04/21 14:51:57;;;;;;;1.35;1.15;;;;;;;;;;5087154;28;20123;-59
2022/04/21 14:54:22;;;;;;;0.52;0.52;;;;;;;;;;5091157;28;20052;-61
2022/04/21 14:56:47;;;;;;;6.90;1.85;;;;;;;;;;5086598;28;21789;-60
2022/04/21 14:59:13;;;;;;;1.35;1.05;;;;;;;;;;5090475;28;20353;-60
2022/04/21 15:01:38;;;;;;;1.48;1.35;;;;;;;;;;5086920;28;20020;-60
2022/04/21 15:04:05;;;;;;;0.90;0.88;;;;;;;;;;5090269;28;20024;-60
2022/04/21 15:06:30;;;;;;;0.32;0.32;;;;;;;;;;5088186;28;20036;-60
2022/04/21 15:08:55;;;;;;;1.45;1.35;;;;;;;;;;5090355;28;20541;-60
2022/04/21 15:11:20;;;;;;;0.90;0.90;;;;;;;;;;5089457;28;20027;-60
2022/04/21 15:13:46;;;;;;;0.10;0.10;;;;;;;;;;5089827;28;20297;-59
2022/04/21 15:16:11;;;;;;;1.75;0.60;;;;;;;;;;5089032;28;20020;-60
2022/04/21 15:18:36;;;;;;;1.55;1.45;;;;;;;;;;5090357;28;20322;-60
2022/04/21 15:21:03;;;;;;;1.27;1.27;;;;;;;;;;5088889;28;20799;-61
2022/04/21 15:23:28;;;;;;;1.27;1.17;;;;;;;;;;5089609;28;20089;-60
2022/04/21 15:25:54;;;;;;;1.55;1.45;;;;;;;;;;5086395;28;20028;-60
2022/04/21 15:28:19;;;;;;;1.42;1.35;;;;;;;;;;5090588;28;20027;-60
2022/04/21 15:30:45;;;;;;;1.95;1.15;;;;;;;;;;5087088;28;20028;-59
2022/04/21 15:33:10;;;;;;;1.50;1.40;;;;;;;;;;5089830;28;20028;-59
2022/04/21 15:35:37;;;;;;;0.65;0.65;;;;;;;;;;5086299;28;20021;-59
2022/04/21 15:38:02;;;;;;;1.85;1.75;;;;;;;;;;5088499;28;20024;-60
2022/04/21 15:40:27;;;;;;;1.20;0.80;;;;;;;;;;5088240;28;20020;-61
2022/04/21 15:42:53;;;;;;;1.23;1.13;;;;;;;;;;5089245;28;20023;-60